Time;durP1;ratioP1;P1;durP2;ratioP2;P2;SDS_P1;SDS_P2;PMS_P1;PMS_P2;Temp;Humidity;BMP_temperature;BMP_pressure;BME280_temperature;BME280_humidity;BME280_pressure;Samples;Min_cycle;Max_cycle;Signal;HPM_P1;HPM_P2
2022/04/28 00:00:19;;;;;;;26.02;11.05;;;7.80;99.90;;;;;;5095612;28;20119;-63
2022/04/28 00:02:47;;;;;;;20.88;11.57;;;7.70;99.90;;;;;;5095967;28;20040;-63
2022/04/28 00:05:13;;;;;;;21.52;10.70;;;7.70;99.90;;;;;;5096396;28;20036;-60
2022/04/28 00:07:39;;;;;;;21.88;11.10;;;7.70;99.90;;;;;;5098827;22;20106;-64
2022/04/28 00:10:06;;;;;;;21.05;11.70;;;7.70;99.90;;;;;;5074646;28;20020;-64
2022/04/28 00:12:32;;;;;;;23.58;11.73;;;7.60;99.90;;;;;;5074950;28;20028;-64
2022/04/28 00:14:58;;;;;;;19.95;11.40;;;7.60;99.90;;;;;;5074870;28;20029;-64
2022/04/28 00:17:23;;;;;;;20.95;10.88;;;7.60;99.90;;;;;;5072963;28;20373;-62
2022/04/28 00:19:49;;;;;;;24.27;12.00;;;7.60;99.90;;;;;;5074649;28;20103;-64
2022/04/28 00:22:16;;;;;;;22.40;10.68;;;7.60;99.90;;;;;;5073371;28;20481;-65
2022/04/28 00:24:43;;;;;;;19.77;10.25;;;7.50;99.90;;;;;;5073356;28;20025;-63
2022/04/28 00:27:08;;;;;;;23.17;11.98;;;7.50;99.90;;;;;;5074349;28;20079;-64
2022/04/28 00:29:34;;;;;;;22.63;12.18;;;7.50;99.90;;;;;;5074153;28;20021;-65
2022/04/28 00:32:01;;;;;;;24.10;10.93;;;7.50;99.90;;;;;;5074584;28;20040;-63
2022/04/28 00:34:26;;;;;;;21.40;11.68;;;7.50;99.90;;;;;;5073169;28;20483;-62
2022/04/28 00:36:52;;;;;;;21.88;11.38;;;7.40;99.90;;;;;;5074395;28;20035;-63
2022/04/28 00:39:18;;;;;;;21.45;11.27;;;7.40;99.90;;;;;;5074701;28;20060;-64
2022/04/28 00:41:43;;;;;;;22.02;11.07;;;7.30;99.90;;;;;;5074403;28;20031;-65
2022/04/28 00:44:11;;;;;;;23.17;11.90;;;7.30;99.90;;;;;;5074297;28;20028;-63
2022/04/28 00:46:38;;;;;;;21.23;10.52;;;7.30;99.90;;;;;;5074315;28;20024;-64
2022/04/28 00:51:48;;;;;;;23.15;11.20;;;7.30;99.90;;;;;;5074697;28;20519;-63
2022/04/28 00:54:14;;;;;;;26.67;12.60;;;7.30;99.90;;;;;;5074149;28;20466;-64
2022/04/28 00:56:40;;;;;;;21.23;11.38;;;7.30;99.90;;;;;;5074171;28;20028;-62
2022/04/28 00:59:06;;;;;;;23.48;11.38;;;7.30;99.90;;;;;;5072650;28;20024;-62
2022/04/28 01:01:32;;;;;;;21.92;10.68;;;7.20;99.90;;;;;;5074119;28;20098;-63
2022/04/28 01:03:59;;;;;;;22.58;12.35;;;7.30;99.90;;;;;;5073773;28;20036;-63
2022/04/28 01:06:24;;;;;;;21.98;11.60;;;7.20;99.90;;;;;;5074156;28;20029;-65
2022/04/28 01:08:50;;;;;;;25.35;11.35;;;7.20;99.90;;;;;;5072534;28;20070;-67
2022/04/28 01:11:19;;;;;;;24.73;12.90;;;7.20;99.90;;;;;;5074039;28;20514;-64
2022/04/28 01:13:45;;;;;;;;;;;7.10;99.90;;;;;;5073329;28;20333;-63
2022/04/28 01:16:12;;;;;;;22.73;11.70;;;7.10;99.90;;;;;;5072654;28;20233;-63
2022/04/28 01:18:38;;;;;;;23.58;11.70;;;7.10;99.90;;;;;;5073683;28;20024;-60
2022/04/28 01:21:05;;;;;;;23.80;12.50;;;7.00;99.90;;;;;;5073734;28;20103;-65
2022/04/28 01:23:35;;;;;;;23.55;11.52;;;7.00;99.90;;;;;;5073737;28;20037;-63
2022/04/28 01:26:01;;;;;;;23.48;11.73;;;7.00;99.90;;;;;;5073773;28;20044;-64
2022/04/28 01:28:27;;;;;;;22.08;11.02;;;7.00;99.90;;;;;;5073800;28;20029;-64
2022/04/28 01:30:53;;;;;;;25.45;10.80;;;6.90;99.90;;;;;;5073562;28;20017;-64
2022/04/28 01:33:19;;;;;;;22.83;11.25;;;7.00;99.90;;;;;;5073336;28;20084;-64
2022/04/28 01:35:44;;;;;;;26.02;11.68;;;7.00;99.90;;;;;;5072015;28;20028;-65
2022/04/28 01:38:10;;;;;;;22.08;11.68;;;7.00;99.90;;;;;;5073524;28;20024;-64
2022/04/28 01:40:36;;;;;;;21.77;11.30;;;6.90;99.90;;;;;;5072198;28;20405;-65
2022/04/28 01:43:01;;;;;;;22.65;10.88;;;6.90;99.90;;;;;;5072023;28;20094;-63
2022/04/28 01:45:27;;;;;;;22.88;11.68;;;6.80;99.90;;;;;;5073155;28;20028;-63
2022/04/28 01:47:53;;;;;;;24.80;12.70;;;6.80;99.90;;;;;;5071814;28;20025;-62
2022/04/28 01:50:18;;;;;;;23.33;11.93;;;6.70;99.90;;;;;;5071077;28;20028;-65
2022/04/28 01:55:31;;;;;;;22.50;11.70;;;6.70;99.90;;;;;;5073264;28;20035;-62
2022/04/28 01:57:57;;;;;;;22.65;11.00;;;6.60;99.90;;;;;;5073302;28;20028;-63
2022/04/28 02:00:23;;;;;;;22.58;12.98;;;6.60;99.90;;;;;;5072947;28;20033;-63
2022/04/28 02:02:48;;;;;;;21.33;11.18;;;6.50;99.90;;;;;;5071669;28;20052;-63
2022/04/28 02:05:15;;;;;;;23.17;12.63;;;6.40;99.90;;;;;;5072798;28;20107;-62
2022/04/28 02:07:42;;;;;;;24.35;13.13;;;6.50;99.90;;;;;;5072871;28;20480;-64
2022/04/28 02:10:08;;;;;;;24.92;12.95;;;6.50;99.90;;;;;;5072709;28;20583;-65
2022/04/28 02:12:34;;;;;;;23.15;12.10;;;6.50;99.90;;;;;;5071393;28;20476;-65
2022/04/28 02:14:59;;;;;;;25.52;12.40;;;6.40;99.90;;;;;;5072545;28;20112;-62
2022/04/28 02:17:26;;;;;;;24.05;12.48;;;6.40;99.90;;;;;;5072247;28;20111;-64
2022/04/28 02:19:53;;;;;;;26.35;12.15;;;6.30;99.90;;;;;;5072662;28;20032;-62
2022/04/28 02:22:19;;;;;;;26.48;12.07;;;6.40;99.90;;;;;;5072762;28;20036;-65
2022/04/28 02:24:45;;;;;;;24.05;12.27;;;6.30;99.90;;;;;;5070985;28;20370;-61
2022/04/28 02:27:11;;;;;;;23.33;12.70;;;6.30;99.90;;;;;;5072551;28;20020;-63
2022/04/28 02:29:37;;;;;;;24.92;12.07;;;6.30;99.90;;;;;;5072398;28;20020;-65
2022/04/28 02:32:03;;;;;;;27.00;12.35;;;6.30;99.90;;;;;;5072282;28;20039;-65
2022/04/28 02:34:29;;;;;;;23.52;11.88;;;6.30;99.90;;;;;;5072573;28;20024;-65
2022/04/28 02:36:55;;;;;;;23.38;12.63;;;6.30;99.90;;;;;;5070773;28;20021;-65
2022/04/28 02:39:21;;;;;;;24.38;12.68;;;6.30;99.90;;;;;;5072150;28;20089;-64
2022/04/28 02:41:47;;;;;;;23.20;11.65;;;6.30;99.90;;;;;;5072276;28;20449;-63
2022/04/28 02:44:13;;;;;;;22.42;12.00;;;6.20;99.90;;;;;;5070843;28;20024;-65
2022/04/28 02:46:48;;;;;;;23.23;12.57;;;6.20;99.90;;;;;;5072459;28;20024;-61
2022/04/28 02:49:15;;;;;;;25.38;12.07;;;6.30;99.90;;;;;;5070871;28;20021;-64
2022/04/28 02:51:41;;;;;;;23.95;12.30;;;6.20;99.90;;;;;;5070436;28;20543;-62
2022/04/28 02:54:07;;;;;;;29.05;12.43;;;6.20;99.90;;;;;;5071882;28;20495;-64
2022/04/28 02:56:34;;;;;;;24.25;12.52;;;6.20;99.90;;;;;;5070818;28;20059;-64
2022/04/28 02:58:59;;;;;;;34.05;13.43;;;6.20;99.90;;;;;;5071749;28;20028;-65
2022/04/28 03:01:26;;;;;;;25.42;11.48;;;6.20;99.90;;;;;;5071869;28;20040;-64
2022/04/28 03:03:52;;;;;;;26.52;11.88;;;6.10;99.90;;;;;;5070682;28;20028;-62
2022/04/28 03:11:48;;;;;;;23.65;11.98;;;6.00;99.90;;;;;;5072108;28;20066;-64
2022/04/28 03:14:14;;;;;;;23.75;12.35;;;5.90;99.90;;;;;;5072098;28;20213;-63
2022/04/28 03:16:40;;;;;;;22.45;12.02;;;6.00;99.90;;;;;;5072127;28;20067;-62
2022/04/28 03:19:05;;;;;;;25.00;13.73;;;6.00;99.90;;;;;;5071957;28;20017;-64
2022/04/28 03:21:32;;;;;;;30.02;13.43;;;6.00;99.90;;;;;;5070674;28;20396;-65
2022/04/28 03:23:57;;;;;;;25.52;12.40;;;5.90;99.90;;;;;;5070679;28;20029;-64
2022/04/28 03:26:23;;;;;;;24.92;14.43;;;6.00;99.90;;;;;;5072068;28;20162;-65
2022/04/28 03:28:49;;;;;;;23.58;13.85;;;5.90;99.90;;;;;;5072073;28;20016;-63
2022/04/28 03:31:15;;;;;;;25.00;13.80;;;5.90;99.90;;;;;;5071766;28;20040;-61
2022/04/28 03:33:40;;;;;;;22.02;12.20;;;5.90;99.90;;;;;;5072077;28;20020;-64
2022/04/28 03:38:50;;;;;;;28.20;13.30;;;5.80;99.90;;;;;;5071879;28;20035;-59
2022/04/28 03:41:16;;;;;;;24.60;12.85;;;5.70;99.90;;;;;;5070835;28;20037;-62
2022/04/28 03:43:41;;;;;;;23.35;13.65;;;5.70;99.90;;;;;;5070411;28;20031;-64
2022/04/28 03:46:07;;;;;;;23.98;12.98;;;5.70;99.90;;;;;;5070200;28;20132;-63
2022/04/28 03:48:33;;;;;;;21.23;12.32;;;5.70;99.90;;;;;;5070217;28;20036;-62
2022/04/28 03:50:58;;;;;;;29.70;13.57;;;5.70;99.90;;;;;;5071485;28;20103;-64
2022/04/28 03:53:24;;;;;;;26.98;13.35;;;5.70;99.90;;;;;;5071414;28;20104;-63
2022/04/28 03:55:50;;;;;;;26.95;14.00;;;5.70;99.90;;;;;;5071348;28;20021;-61
2022/04/28 03:58:16;;;;;;;27.02;13.98;;;5.70;99.90;;;;;;5070229;28;20115;-64
2022/04/28 04:00:42;;;;;;;26.60;13.63;;;5.70;99.90;;;;;;5071271;28;20054;-64
2022/04/28 04:03:08;;;;;;;27.98;13.88;;;5.70;99.90;;;;;;5072737;28;20051;-66
2022/04/28 04:05:33;;;;;;;29.20;14.10;;;5.70;99.90;;;;;;5075152;28;20051;-65
2022/04/28 04:07:59;;;;;;;25.90;13.50;;;5.70;99.90;;;;;;5074781;28;20025;-65
2022/04/28 04:10:25;;;;;;;26.98;14.20;;;5.70;99.90;;;;;;5073557;28;20032;-64
2022/04/28 04:12:50;;;;;;;23.92;13.52;;;5.70;99.90;;;;;;5073627;28;20164;-65
2022/04/28 04:15:16;;;;;;;23.83;13.50;;;5.70;99.90;;;;;;5074644;28;20090;-63
2022/04/28 04:17:45;;;;;;;24.10;13.90;;;5.70;99.90;;;;;;5074892;28;20048;-64
2022/04/28 04:20:11;;;;;;;23.98;13.77;;;5.70;99.90;;;;;;5074667;28;20493;-64
2022/04/28 04:22:37;;;;;;;24.85;13.68;;;5.70;99.90;;;;;;5074584;28;20036;-62
2022/04/28 04:25:04;;;;;;;31.33;14.77;;;5.70;99.90;;;;;;5074583;28;20107;-65
2022/04/28 04:27:29;;;;;;;25.27;13.20;;;5.70;99.90;;;;;;5074542;28;20025;-65
2022/04/28 04:29:55;;;;;;;26.40;13.95;;;5.70;99.90;;;;;;5074621;28;20028;-61
2022/04/28 04:32:25;;;;;;;26.33;14.45;;;5.80;99.90;;;;;;5074604;28;20027;-63
2022/04/28 04:34:51;;;;;;;25.33;12.98;;;5.80;99.90;;;;;;5074209;28;20104;-63
2022/04/28 04:37:17;;;;;;;27.83;14.38;;;5.70;99.90;;;;;;5074814;28;20103;-61
2022/04/28 04:39:44;;;;;;;27.02;13.82;;;5.70;99.90;;;;;;5074457;28;20047;-60
2022/04/28 04:42:10;;;;;;;29.95;14.90;;;5.70;99.90;;;;;;5074567;28;20029;-62
2022/04/28 04:44:36;;;;;;;24.88;13.60;;;5.80;99.90;;;;;;5074115;28;20024;-63
2022/04/28 04:47:02;;;;;;;28.13;13.38;;;5.80;99.90;;;;;;5074218;28;20110;-65
2022/04/28 04:49:28;;;;;;;24.30;13.73;;;5.90;99.90;;;;;;5074290;28;20032;-63
2022/04/28 04:51:54;;;;;;;35.38;15.60;;;6.10;99.90;;;;;;5074923;28;20099;-61
2022/04/28 04:54:22;;;;;;;28.92;15.23;;;6.20;99.90;;;;;;5074830;28;20028;-64
2022/04/28 04:56:48;;;;;;;25.63;14.18;;;6.30;99.90;;;;;;5074143;28;20078;-62
2022/04/28 04:59:13;;;;;;;29.10;14.93;;;6.40;99.90;;;;;;5074037;28;20373;-65
2022/04/28 05:01:39;;;;;;;23.73;12.85;;;6.40;99.90;;;;;;5072810;28;20373;-64
2022/04/28 05:04:05;;;;;;;28.88;14.07;;;6.60;99.90;;;;;;5073978;28;20373;-63
2022/04/28 05:06:30;;;;;;;27.15;13.90;;;6.60;99.90;;;;;;5074056;28;20051;-64
2022/04/28 05:08:56;;;;;;;27.10;13.75;;;6.50;99.90;;;;;;5073566;28;20315;-61
2022/04/28 05:11:22;;;;;;;31.35;14.68;;;6.50;99.90;;;;;;5074069;28;20017;-60
2022/04/28 05:13:48;;;;;;;27.63;14.35;;;6.50;99.90;;;;;;5073537;28;20040;-64
2022/04/28 05:16:14;;;;;;;27.45;13.95;;;6.50;99.90;;;;;;5072355;28;20421;-64
2022/04/28 05:18:39;;;;;;;29.85;15.48;;;6.50;99.90;;;;;;5073718;28;20035;-64
2022/04/28 05:21:05;;;;;;;24.88;13.77;;;6.50;99.90;;;;;;5073671;28;20120;-64
2022/04/28 05:23:30;;;;;;;28.10;14.20;;;6.60;99.90;;;;;;5073923;28;20058;-62
2022/04/28 05:25:56;;;;;;;27.58;13.90;;;6.60;99.90;;;;;;5072181;28;20028;-63
2022/04/28 05:28:26;;;;;;;36.42;14.65;;;6.60;99.90;;;;;;5073827;28;20017;-62
2022/04/28 05:30:51;;;;;;;24.40;14.00;;;6.70;99.90;;;;;;5073425;28;20025;-62
2022/04/28 05:33:17;;;;;;;29.20;14.00;;;6.80;99.90;;;;;;5073273;28;20366;-60
2022/04/28 05:35:43;;;;;;;26.05;14.88;;;6.80;99.90;;;;;;5073379;28;20461;-64
2022/04/28 05:38:09;;;;;;;25.45;13.68;;;6.90;99.90;;;;;;5073175;28;20031;-63
2022/04/28 05:40:37;;;;;;;29.88;14.48;;;7.20;99.90;;;;;;5072658;28;20021;-63
2022/04/28 05:45:47;;;;;;;27.88;14.20;;;7.50;99.90;;;;;;5072630;28;20047;-63
2022/04/28 05:48:18;;;;;;;25.27;13.80;;;7.30;99.90;;;;;;5072822;28;20473;-63
2022/04/28 05:50:44;;;;;;;27.05;13.23;;;7.20;99.90;;;;;;5072377;28;20020;-64
2022/04/28 05:53:11;;;;;;;26.05;14.02;;;7.20;99.90;;;;;;5071606;28;20039;-63
2022/04/28 05:55:37;;;;;;;25.63;14.38;;;7.30;99.90;;;;;;5072644;28;20043;-60
2022/04/28 05:58:03;;;;;;;25.45;13.68;;;7.30;99.90;;;;;;5072866;28;20094;-62
2022/04/28 06:00:30;;;;;;;29.15;13.52;;;7.30;99.90;;;;;;5072450;28;20024;-64
2022/04/28 06:02:56;;;;;;;25.25;12.90;;;7.30;99.90;;;;;;5072640;28;20082;-63
2022/04/28 06:05:22;;;;;;;25.80;13.85;;;7.40;99.90;;;;;;5072504;28;20377;-62
2022/04/28 06:07:49;;;;;;;24.42;13.48;;;7.30;99.90;;;;;;5067198;22;20052;-63
2022/04/28 06:10:15;;;;;;;32.75;16.25;;;7.40;99.90;;;;;;5034485;28;20090;-60
2022/04/28 06:12:41;;;;;;;28.67;13.75;;;7.40;99.90;;;;;;5035354;28;20025;-60
2022/04/28 06:15:08;;;;;;;28.05;14.63;;;7.50;99.90;;;;;;5034704;28;20029;-60
2022/04/28 06:17:33;;;;;;;28.88;15.07;;;7.50;99.90;;;;;;5035488;28;20029;-59
2022/04/28 06:19:59;;;;;;;26.42;15.02;;;7.60;99.90;;;;;;5035372;28;20039;-63
2022/04/28 06:22:25;;;;;;;28.90;14.23;;;7.60;99.90;;;;;;5035027;28;20025;-63
2022/04/28 06:24:52;;;;;;;27.05;13.00;;;7.70;99.90;;;;;;5034834;28;20037;-63
2022/04/28 06:27:18;;;;;;;28.50;13.88;;;7.90;99.90;;;;;;5034188;28;20049;-59
2022/04/28 06:29:44;;;;;;;26.20;14.00;;;7.90;99.90;;;;;;5033823;28;20068;-59
2022/04/28 06:32:10;;;;;;;33.90;14.88;;;8.00;99.90;;;;;;5034636;28;20082;-59
2022/04/28 06:34:36;;;;;;;25.33;14.02;;;8.10;99.90;;;;;;5034568;28;20036;-62
2022/04/28 06:37:02;;;;;;;26.05;13.65;;;8.20;99.90;;;;;;5034497;28;20022;-57
2022/04/28 06:39:28;;;;;;;27.17;13.88;;;8.30;99.90;;;;;;5035009;28;20044;-61
2022/04/28 06:41:53;;;;;;;28.77;15.73;;;8.30;99.90;;;;;;5023055;28;20393;-63
2022/04/28 06:44:19;;;;;;;30.10;16.60;;;8.40;99.90;;;;;;5024954;28;20101;-58
2022/04/28 06:46:45;;;;;;;30.73;14.65;;;8.40;99.90;;;;;;5024696;28;20072;-57
2022/04/28 06:49:10;;;;;;;25.88;14.82;;;8.40;99.90;;;;;;5025768;28;20017;-62
2022/04/28 06:51:36;;;;;;;26.85;14.93;;;8.60;99.90;;;;;;5021156;28;20013;-63
2022/04/28 06:54:02;;;;;;;27.92;15.05;;;8.70;99.90;;;;;;5018685;28;20462;-66
2022/04/28 06:56:29;;;;;;;31.10;14.60;;;8.80;99.90;;;;;;5014970;28;20412;-63
2022/04/28 06:58:54;;;;;;;33.00;19.30;;;8.80;99.90;;;;;;5014442;28;20394;-64
2022/04/28 07:01:20;;;;;;;27.85;14.25;;;8.80;99.90;;;;;;5025524;28;20113;-64
2022/04/28 07:03:46;;;;;;;26.13;14.82;;;8.90;99.90;;;;;;5025868;28;20033;-64
2022/04/28 07:06:11;;;;;;;29.48;15.27;;;8.90;99.90;;;;;;5023668;28;20517;-61
2022/04/28 07:08:37;;;;;;;31.27;16.35;;;9.10;99.90;;;;;;5024500;28;20026;-57
2022/04/28 07:11:03;;;;;;;25.45;13.13;;;9.20;99.90;;;;;;5021381;28;20553;-63
2022/04/28 07:13:29;;;;;;;26.30;13.63;;;9.30;99.90;;;;;;5024594;28;20102;-63
2022/04/28 07:15:55;;;;;;;25.80;12.98;;;9.30;99.90;;;;;;5021964;28;20022;-65
2022/04/28 07:18:20;;;;;;;28.25;14.02;;;9.40;99.90;;;;;;5022884;28;20445;-63
2022/04/28 07:20:46;;;;;;;21.63;12.40;;;9.50;99.90;;;;;;5021109;28;20394;-64
2022/04/28 07:23:12;;;;;;;22.45;13.38;;;9.50;99.90;;;;;;5021387;28;20127;-61
2022/04/28 07:25:39;;;;;;;36.63;14.75;;;9.50;99.90;;;;;;5020420;28;20395;-64
2022/04/28 07:28:05;;;;;;;26.83;15.27;;;9.60;99.90;;;;;;5021820;28;20149;-63
2022/04/28 07:30:31;;;;;;;23.83;12.82;;;9.60;99.90;;;;;;5020052;28;20098;-62
2022/04/28 07:32:57;;;;;;;24.17;12.82;;;9.70;99.90;;;;;;5020316;28;20025;-63
2022/04/28 07:35:26;;;;;;;26.58;13.75;;;9.60;99.90;;;;;;5011046;28;20049;-62
2022/04/28 07:37:52;;;;;;;31.98;12.48;;;9.70;99.90;;;;;;5014430;28;20041;-65
2022/04/28 07:40:18;;;;;;;26.75;13.93;;;9.80;99.90;;;;;;5023168;28;20025;-58
2022/04/28 07:42:44;;;;;;;25.70;13.13;;;9.90;99.90;;;;;;5024319;28;20389;-60
2022/04/28 07:45:10;;;;;;;25.83;14.98;;;10.00;99.90;;;;;;5024394;28;20045;-60
2022/04/28 07:47:36;;;;;;;28.50;13.88;;;10.10;99.90;;;;;;5022229;28;20021;-59
2022/04/28 07:50:02;;;;;;;25.13;15.25;;;10.20;99.90;;;;;;5022924;28;20030;-57
2022/04/28 07:52:28;;;;;;;27.75;13.10;;;10.20;99.90;;;;;;5022781;28;20048;-58
2022/04/28 07:54:54;;;;;;;50.20;14.70;;;10.30;99.90;;;;;;5023529;28;20026;-57
2022/04/28 07:57:22;;;;;;;43.17;16.27;;;10.40;99.90;;;;;;5023229;28;20018;-59
2022/04/28 07:59:49;;;;;;;28.88;13.50;;;10.30;99.90;;;;;;5018168;28;20033;-59
2022/04/28 08:02:14;;;;;;;36.58;16.80;;;10.40;99.90;;;;;;5015262;28;20032;-58
2022/04/28 08:04:40;;;;;;;26.33;14.13;;;10.40;99.90;;;;;;5026794;28;20550;-61
2022/04/28 08:07:06;;;;;;;25.15;13.48;;;10.60;99.90;;;;;;5032184;28;20071;-58
2022/04/28 08:09:32;;;;;;;27.23;13.52;;;10.70;99.90;;;;;;5033725;28;20044;-58
2022/04/28 08:11:58;;;;;;;63.95;39.22;;;10.70;99.90;;;;;;5022833;28;20022;-53
2022/04/28 08:14:24;;;;;;;60.85;20.00;;;10.90;99.90;;;;;;5016105;28;20057;-55
2022/04/28 08:16:54;;;;;;;26.27;14.05;;;10.90;99.90;;;;;;5015147;28;20041;-52
2022/04/28 08:19:20;;;;;;;31.88;17.20;;;11.10;99.90;;;;;;5017822;28;20028;-65
2022/04/28 08:21:46;;;;;;;25.73;13.45;;;11.30;99.90;;;;;;5033516;28;20036;-58
2022/04/28 08:24:13;;;;;;;29.83;14.75;;;11.20;99.90;;;;;;5033360;28;20025;-62
2022/04/28 08:26:38;;;;;;;28.65;12.95;;;11.20;99.90;;;;;;5033095;28;20106;-61
2022/04/28 08:29:04;;;;;;;30.73;17.67;;;11.30;99.90;;;;;;5033097;28;20113;-62
2022/04/28 08:31:30;;;;;;;28.67;14.18;;;11.50;99.90;;;;;;5033279;28;20022;-59
2022/04/28 08:33:56;;;;;;;26.27;15.27;;;11.60;99.90;;;;;;5033411;28;20624;-58
2022/04/28 08:36:22;;;;;;;69.47;52.00;;;11.60;99.90;;;;;;5029585;28;20033;-51
2022/04/28 08:38:48;;;;;;;27.35;14.23;;;11.60;99.90;;;;;;5013290;28;20022;-62
2022/04/28 08:41:19;;;;;;;22.45;13.77;;;11.40;99.90;;;;;;5013138;28;20061;-63
2022/04/28 08:43:46;;;;;;;23.95;12.95;;;11.40;99.90;;;;;;5012151;28;20021;-64
2022/04/28 08:48:56;;;;;;;22.98;12.30;;;11.70;99.90;;;;;;5012872;28;20109;-61
2022/04/28 08:51:26;;;;;;;26.10;13.65;;;12.00;99.90;;;;;;5013540;28;20106;-61
2022/04/28 08:53:53;;;;;;;21.83;12.88;;;12.00;99.90;;;;;;5013404;28;20391;-62
2022/04/28 08:56:20;;;;;;;24.20;13.10;;;12.20;99.90;;;;;;5013823;28;20037;-60
2022/04/28 08:58:47;;;;;;;22.92;13.20;;;12.10;99.90;;;;;;5013285;28;20037;-60
2022/04/28 09:01:13;;;;;;;22.67;12.90;;;12.30;99.90;;;;;;5013402;28;20021;-62
2022/04/28 09:03:40;;;;;;;24.00;13.15;;;12.40;99.90;;;;;;5021525;28;20079;-60
2022/04/28 09:06:19;;;;;;;26.00;14.68;;;12.60;99.90;;;;;;5032878;28;20057;-63
2022/04/28 09:08:45;;;;;;;;;;;12.60;99.90;;;;;;5033564;28;20025;-61
2022/04/28 09:11:18;;;;;;;25.15;12.68;;;12.80;99.90;;;;;;5033261;28;19913;-62
2022/04/28 09:16:32;;;;;;;25.65;12.52;;;12.90;99.90;;;;;;5033167;28;20087;-61
2022/04/28 09:18:59;;;;;;;25.33;13.27;;;12.90;99.90;;;;;;5032583;28;20021;-63
2022/04/28 09:21:24;;;;;;;25.80;13.20;;;12.90;99.90;;;;;;5032535;28;20029;-61
2022/04/28 09:23:53;;;;;;;24.35;11.90;;;12.80;99.90;;;;;;5032975;28;20451;-61
2022/04/28 09:26:23;;;;;;;27.27;13.85;;;12.80;99.90;;;;;;5031441;28;20021;-63
2022/04/28 09:28:48;;;;;;;25.73;12.90;;;12.90;99.90;;;;;;5032276;28;20018;-62
2022/04/28 09:31:17;;;;;;;21.92;13.43;;;13.00;99.90;;;;;;5032677;28;20028;-62
2022/04/28 09:33:44;;;;;;;;;;;13.10;99.90;;;;;;5033278;28;20029;-63
2022/04/28 09:36:10;;;;;;;24.73;14.07;;;13.30;99.90;;;;;;5032190;28;19909;-61
2022/04/28 09:38:36;;;;;;;26.35;12.60;;;13.30;99.90;;;;;;5032338;28;20091;-63
2022/04/28 09:43:45;;;;;;;58.92;38.15;;;13.50;99.90;;;;;;5032284;28;20059;-56
2022/04/28 09:46:11;;;;;;;36.88;26.08;;;13.50;99.90;;;;;;5032099;28;20469;-66
2022/04/28 09:48:42;;;;;;;21.20;13.45;;;13.50;99.60;;;;;;5030670;28;20080;-54
2022/04/28 09:51:10;;;;;;;24.25;14.27;;;13.70;99.60;;;;;;5032033;28;20049;-51
2022/04/28 09:53:36;;;;;;;21.33;12.68;;;13.90;99.40;;;;;;5039730;28;20023;-59
2022/04/28 09:56:05;;;;;;;24.25;14.20;;;14.00;99.00;;;;;;5051713;28;20096;-61
2022/04/28 09:58:31;;;;;;;22.63;12.63;;;13.80;98.30;;;;;;5051760;28;20025;-55
2022/04/28 10:01:03;;;;;;;22.77;12.73;;;14.00;98.70;;;;;;5050634;28;20029;-57
2022/04/28 10:03:30;;;;;;;21.25;12.50;;;14.00;98.50;;;;;;5048088;28;20378;-55
2022/04/28 10:05:59;;;;;;;19.45;12.05;;;13.90;98.40;;;;;;5030456;28;20025;-54
2022/04/28 10:08:25;;;;;;;26.90;14.25;;;14.20;98.10;;;;;;5031083;28;20029;-55
2022/04/28 10:10:55;;;;;;;25.83;11.60;;;14.40;97.90;;;;;;4683252;28;10000043;-58
2022/04/28 10:13:21;;;;;;;20.63;12.65;;;14.50;97.50;;;;;;5024179;28;20764;-58
2022/04/28 10:15:54;;;;;;;23.73;12.57;;;14.50;96.50;;;;;;5027403;28;20065;-56
2022/04/28 10:18:24;;;;;;;24.77;14.25;;;14.40;96.40;;;;;;5028346;28;20029;-56
2022/04/28 10:20:55;;;;;;;22.10;12.90;;;14.40;96.50;;;;;;5028279;28;20025;-54
2022/04/28 10:32:22;;;;;;;22.10;12.77;;;14.30;96.40;;;;;;5028666;28;20087;-57
2022/04/28 10:35:06;;;;;;;23.88;12.93;;;14.30;95.40;;;;;;5008581;28;20369;-57
2022/04/28 10:37:42;;;;;;;21.40;12.43;;;14.40;95.10;;;;;;5023623;28;20120;-59
2022/04/28 10:40:13;;;;;;;24.90;13.70;;;14.70;94.60;;;;;;5008261;28;20088;-55
2022/04/28 10:42:39;;;;;;;23.92;12.75;;;14.40;94.60;;;;;;5022048;28;20025;-57
2022/04/28 10:45:23;;;;;;;26.65;12.93;;;14.30;95.30;;;;;;5028001;28;20080;-54
2022/04/28 10:47:48;;;;;;;23.48;13.18;;;14.60;96.10;;;;;;5026294;28;20079;-60
2022/04/28 10:50:20;;;;;;;24.85;13.63;;;14.90;96.10;;;;;;5025336;28;20021;-58
2022/04/28 10:52:54;;;;;;;24.75;13.00;;;15.20;94.70;;;;;;5027646;28;20111;-61
2022/04/28 10:55:23;;;;;;;25.05;12.82;;;15.30;94.70;;;;;;5026613;28;20132;-60
2022/04/28 10:57:49;;;;;;;26.30;13.10;;;15.50;94.70;;;;;;5027825;28;20022;-59
2022/04/28 11:00:35;;;;;;;22.08;13.07;;;15.60;94.30;;;;;;5027566;28;20662;-57
2022/04/28 11:03:02;;;;;;;22.00;13.77;;;15.70;93.20;;;;;;5027521;28;20026;-57
2022/04/28 11:05:35;;;;;;;23.98;13.25;;;15.80;93.90;;;;;;5007230;28;20034;-60
2022/04/28 11:08:01;;;;;;;21.45;12.73;;;15.90;92.40;;;;;;5018918;28;20125;-60
2022/04/28 11:10:28;;;;;;;21.02;12.80;;;;;;;;;;5027606;28;20120;-57
2022/04/28 11:12:54;;;;;;;24.83;13.32;;;;;;;;;;5027230;28;20035;-61
2022/04/28 11:15:21;;;;;;;24.00;12.82;;;;;;;;;;5026155;28;20025;-56
2022/04/28 11:17:47;;;;;;;37.70;23.33;;;;;;;;;;5028015;28;20400;-57
2022/04/28 11:20:19;;;;;;;20.33;13.05;;;16.30;93.00;;;;;;5028029;28;20053;-52
2022/04/28 11:22:46;;;;;;;23.77;12.93;;;17.80;88.80;;;;;;5027983;28;20029;-54
2022/04/28 11:25:13;;;;;;;24.63;13.15;;;18.40;87.30;;;;;;5028420;28;20105;-52
2022/04/28 11:27:39;;;;;;;22.00;13.90;;;18.00;85.80;;;;;;5029106;28;20030;-55
2022/04/28 11:30:06;;;;;;;25.70;13.18;;;18.90;85.70;;;;;;5028611;28;20025;-54
2022/04/28 11:32:32;;;;;;;20.65;12.68;;;19.60;83.20;;;;;;5028985;28;20036;-60
2022/04/28 11:34:58;;;;;;;20.88;12.55;;;19.60;79.70;;;;;;5031933;28;20022;-55
2022/04/28 11:37:26;;;;;;;19.25;12.23;;;19.80;78.60;;;;;;5032772;28;20030;-56
2022/04/28 11:39:54;;;;;;;22.35;13.20;;;19.80;77.90;;;;;;5028100;28;20041;-60
2022/04/28 11:42:22;;;;;;;22.38;13.02;;;19.90;76.30;;;;;;5031886;28;20092;-54
2022/04/28 11:44:51;;;;;;;19.45;11.98;;;20.50;75.90;;;;;;5032827;28;20510;-54
2022/04/28 11:47:20;;;;;;;22.42;12.68;;;20.90;74.30;;;;;;5035283;28;20136;-58
2022/04/28 11:49:46;;;;;;;;;;;21.30;73.10;;;;;;5035341;28;20319;-55
2022/04/28 11:52:37;;;;;;;25.20;14.10;;;22.00;73.20;;;;;;5031556;28;19983;-56
2022/04/28 11:55:07;;;;;;;26.20;13.85;;;22.90;70.10;;;;;;5038024;28;20120;-57
2022/04/28 11:57:33;;;;;;;21.60;13.05;;;23.10;69.20;;;;;;5039240;28;20029;-60
2022/04/28 11:59:59;;;;;;;21.67;13.05;;;23.60;67.50;;;;;;5038823;28;20197;-58
2022/04/28 12:02:30;;;;;;;20.98;13.52;;;;;;;;;;5038363;28;20025;-58
2022/04/28 12:04:56;;;;;;;22.38;12.93;;;;;;;;;;5038042;28;20049;-60
2022/04/28 12:07:23;;;;;;;21.70;13.90;;;;;;;;;;5056773;23;20489;-65
2022/04/28 12:15:27;;;;;;;22.48;13.80;;;24.80;59.90;;;;;;5044721;28;20044;-65
2022/04/28 12:21:05;;;;;;;19.40;12.88;;;25.60;60.00;;;;;;5050944;28;20048;-66
2022/04/28 12:23:32;;;;;;;23.70;14.30;;;26.30;59.50;;;;;;5049943;28;20048;-67
2022/04/28 12:26:03;;;;;;;25.60;13.13;;;26.80;56.40;;;;;;5054870;28;20075;-67
2022/04/28 12:28:33;;;;;;;21.17;13.10;;;27.50;56.80;;;;;;5052078;28;20038;-68
2022/04/28 12:31:00;;;;;;;21.95;13.82;;;27.20;54.20;;;;;;5049972;28;20021;-66
2022/04/28 12:33:27;;;;;;;23.17;13.93;;;26.30;54.30;;;;;;5052771;28;20036;-68
2022/04/28 12:35:57;;;;;;;19.83;13.05;;;26.00;55.00;;;;;;5056254;28;20021;-68
2022/04/28 12:38:26;;;;;;;25.85;14.23;;;26.40;55.30;;;;;;5054943;28;20048;-67
2022/04/28 12:40:52;;;;;;;21.77;13.68;;;26.60;53.80;;;;;;5054577;28;20049;-68
2022/04/28 12:43:39;;;;;;;22.02;13.90;;;;;;;;;;5054104;28;20087;-67
2022/04/28 12:46:09;;;;;;;21.73;13.63;;;;;;;;;;5054577;28;20497;-67
2022/04/28 12:48:36;;;;;;;18.65;12.70;;;;;;;;;;5054340;28;20024;-66
2022/04/28 12:51:08;;;;;;;19.27;12.98;;;;;;;;;;5063184;28;20025;-67
2022/04/28 12:53:35;;;;;;;20.38;13.52;;;;;;;;;;5054457;28;20452;-66
2022/04/28 12:56:09;;;;;;;20.13;13.73;;;27.00;54.70;;;;;;5052631;28;20017;-65
2022/04/28 12:58:55;;;;;;;23.75;13.07;;;;;;;;;;5045660;28;20370;-66
2022/04/28 13:01:21;;;;;;;19.33;12.73;;;;;;;;;;5047901;28;20021;-66
2022/04/28 13:04:21;;;;;;;21.98;14.18;;;26.70;50.60;;;;;;5050527;28;20469;-66
2022/04/28 13:06:46;;;;;;;35.47;26.92;;;25.80;50.90;;;;;;5053679;28;20078;-66
2022/04/28 13:09:16;;;;;;;19.65;13.52;;;25.70;51.80;;;;;;5053835;28;20457;-66
2022/04/28 13:11:44;;;;;;;20.42;13.05;;;25.00;51.70;;;;;;5053295;28;20032;-67
2022/04/28 13:14:11;;;;;;;20.85;13.07;;;26.60;53.10;;;;;;5054543;28;20024;-66
2022/04/28 13:16:39;;;;;;;19.02;13.07;;;27.50;51.30;;;;;;5054375;28;20043;-68
2022/04/28 13:19:05;;;;;;;19.47;12.20;;;27.80;49.50;;;;;;5035625;28;20056;-67